Time;durP1;ratioP1;P1;durP2;ratioP2;P2;SDS_P1;SDS_P2;PMS_P1;PMS_P2;Temp;Humidity;BMP_temperature;BMP_pressure;BME280_temperature;BME280_humidity;BME280_pressure;Samples;Min_cycle;Max_cycle;Signal;HPM_P1;HPM_P2
2021/07/14 00:02:43;;;;;;;5.93;3.13;;;15.50;55.50;;;;;;5111816;27;20173;-72
2021/07/14 00:05:33;;;;;;;5.00;2.75;;;15.40;54.30;;;;;;5107261;27;20050;-73
2021/07/14 00:08:22;;;;;;;4.38;2.30;;;15.50;51.20;;;;;;5109355;27;20092;-72
2021/07/14 00:11:12;;;;;;;3.67;2.22;;;15.50;48.50;;;;;;5107967;27;20048;-73
2021/07/14 00:14:15;;;;;;;6.60;2.40;;;15.50;46.00;;;;;;5109935;27;20054;-72
2021/07/14 00:17:26;;;;;;;5.60;2.15;;;15.40;44.40;;;;;;5108298;28;20093;-72
2021/07/14 00:23:21;;;;;;;2.28;2.00;;;15.50;41.20;;;;;;5108175;27;20490;-72
2021/07/14 00:26:11;;;;;;;5.72;2.40;;;15.40;39.50;;;;;;5107685;27;20048;-72
2021/07/14 00:29:01;;;;;;;3.75;1.92;;;15.50;38.10;;;;;;5109676;27;20051;-72
2021/07/14 00:31:50;;;;;;;6.25;2.25;;;15.50;37.60;;;;;;5107547;27;20051;-72
2021/07/14 00:34:39;;;;;;;3.88;2.22;;;15.40;38.50;;;;;;5109048;27;20055;-71
2021/07/14 00:37:27;;;;;;;6.57;2.30;;;15.30;38.30;;;;;;5106424;28;20678;-72
2021/07/14 00:40:16;;;;;;;5.07;2.90;;;15.30;38.80;;;;;;5108424;27;20062;-72
2021/07/14 00:43:06;;;;;;;4.22;2.63;;;15.20;39.00;;;;;;5110802;27;20051;-73
2021/07/14 00:45:54;;;;;;;3.90;2.40;;;15.20;39.90;;;;;;5107798;27;20051;-73
2021/07/14 00:48:43;;;;;;;4.28;2.35;;;15.10;40.60;;;;;;5108425;28;20055;-72
2021/07/14 00:51:31;;;;;;;5.25;2.58;;;15.00;42.40;;;;;;5107597;28;20047;-72
2021/07/14 00:54:20;;;;;;;6.72;2.60;;;14.90;42.50;;;;;;5112083;28;20551;-72
2021/07/14 00:57:08;;;;;;;3.20;2.53;;;15.00;43.20;;;;;;5107891;28;20044;-73
2021/07/14 00:59:58;;;;;;;6.63;2.90;;;14.90;42.30;;;;;;5108601;28;20039;-71
2021/07/14 01:02:47;;;;;;;5.55;2.90;;;14.90;43.00;;;;;;5106325;28;20548;-72
2021/07/14 01:05:45;;;;;;;7.15;2.33;;;14.80;43.70;;;;;;5107539;28;20123;-73
2021/07/14 01:08:43;;;;;;;11.60;3.33;;;14.80;43.80;;;;;;5112885;28;20070;-72
2021/07/14 01:11:34;;;;;;;5.07;3.33;;;14.70;43.80;;;;;;5108705;28;20600;-73
2021/07/14 01:14:35;;;;;;;8.20;2.75;;;14.50;48.00;;;;;;5109954;28;20050;-72
2021/07/14 01:17:27;;;;;;;7.53;3.03;;;14.40;49.20;;;;;;5108553;28;20044;-73
2021/07/14 01:20:31;;;;;;;7.85;3.17;;;14.50;49.50;;;;;;5108484;28;20044;-72
2021/07/14 01:23:29;;;;;;;5.83;3.60;;;14.50;50.70;;;;;;5109340;28;20051;-72
2021/07/14 01:26:32;;;;;;;6.03;2.83;;;14.60;51.20;;;;;;5113600;27;20040;-71
2021/07/14 01:29:23;;;;;;;5.50;2.90;;;14.60;51.40;;;;;;5116021;27;20047;-73
2021/07/14 01:32:13;;;;;;;9.77;3.72;;;14.60;49.50;;;;;;5114250;27;20103;-71
2021/07/14 01:35:05;;;;;;;6.85;3.38;;;14.30;52.40;;;;;;5112940;27;20208;-72
2021/07/14 01:37:55;;;;;;;6.15;3.25;;;14.30;53.30;;;;;;5110255;27;20052;-71
2021/07/14 01:40:43;;;;;;;11.50;3.05;;;14.40;52.60;;;;;;5117801;27;20077;-71
2021/07/14 01:43:35;;;;;;;9.38;2.97;;;14.40;50.80;;;;;;5113676;27;20142;-72
2021/07/14 01:46:27;;;;;;;8.52;3.22;;;14.40;50.70;;;;;;5114512;27;20036;-72
2021/07/14 01:49:18;;;;;;;11.40;3.90;;;14.50;50.50;;;;;;5112189;27;20501;-72
2021/07/14 01:52:10;;;;;;;7.68;3.70;;;14.50;49.40;;;;;;5113074;27;20398;-72
2021/07/14 01:55:02;;;;;;;6.75;3.28;;;14.50;49.40;;;;;;5119925;27;20044;-73
2021/07/14 01:57:53;;;;;;;9.95;3.50;;;14.50;49.80;;;;;;5111470;27;20156;-72
2021/07/14 02:00:42;;;;;;;7.13;3.47;;;14.40;50.20;;;;;;5111295;27;20039;-73
2021/07/14 02:04:29;;;;;;;6.53;3.47;;;14.40;51.50;;;;;;5110348;27;20055;-72
2021/07/14 02:07:06;;;;;;;8.15;3.60;;;14.40;51.30;;;;;;5113290;27;20088;-72
2021/07/14 02:09:56;;;;;;;4.93;3.38;;;14.40;51.00;;;;;;5109177;27;20065;-71
2021/07/14 02:12:47;;;;;;;8.90;3.40;;;14.50;50.90;;;;;;5115006;27;20162;-72
2021/07/14 02:15:38;;;;;;;12.10;3.33;;;14.60;49.60;;;;;;5111057;27;20043;-72
2021/07/14 02:18:30;;;;;;;4.20;3.40;;;14.60;49.40;;;;;;5112671;27;20156;-73
2021/07/14 02:21:19;;;;;;;5.65;3.08;;;14.60;48.10;;;;;;5114718;27;20057;-71
2021/07/14 02:24:11;;;;;;;4.55;3.33;;;14.60;47.30;;;;;;5114070;27;20079;-73
2021/07/14 02:27:05;;;;;;;7.40;3.78;;;14.70;48.40;;;;;;5119238;27;20051;-72
2021/07/14 02:29:53;;;;;;;5.38;3.15;;;14.60;49.00;;;;;;5111690;27;20328;-72
2021/07/14 02:32:42;;;;;;;6.53;3.40;;;14.60;49.30;;;;;;5109683;27;20055;-73
2021/07/14 02:35:31;;;;;;;8.52;4.43;;;14.60;50.10;;;;;;5111734;27;20065;-73
2021/07/14 02:38:29;;;;;;;5.65;3.63;;;14.60;51.40;;;;;;5110698;27;20260;-72
2021/07/14 02:41:24;;;;;;;8.38;3.78;;;14.50;52.20;;;;;;5109482;27;20513;-72
2021/07/14 02:44:14;;;;;;;;;;;14.50;52.50;;;;;;5115939;27;20042;-72
2021/07/14 02:47:03;;;;;;;4.47;3.60;;;14.50;53.10;;;;;;5112592;27;19923;-72
2021/07/14 02:49:52;;;;;;;8.55;4.40;;;14.40;53.70;;;;;;5112922;27;20043;-73
2021/07/14 02:52:41;;;;;;;7.07;4.28;;;14.40;53.90;;;;;;5111923;27;20481;-71
2021/07/14 02:55:33;;;;;;;6.38;4.22;;;14.30;54.30;;;;;;5109056;27;20051;-72
2021/07/14 02:58:23;;;;;;;8.32;4.60;;;14.30;54.50;;;;;;5109325;27;20040;-73
2021/07/14 03:01:15;;;;;;;7.15;4.30;;;14.40;54.60;;;;;;5108917;27;20055;-72
2021/07/14 03:04:05;;;;;;;7.35;4.72;;;14.40;53.80;;;;;;5110220;27;20036;-72
2021/07/14 03:06:54;;;;;;;7.72;4.72;;;14.30;54.60;;;;;;5113594;27;20168;-71
2021/07/14 03:09:43;;;;;;;8.05;4.15;;;14.30;54.10;;;;;;5110844;27;20063;-72
2021/07/14 03:12:34;;;;;;;9.85;4.95;;;14.40;54.40;;;;;;5107892;27;20050;-70
2021/07/14 03:15:23;;;;;;;8.40;4.65;;;14.40;53.60;;;;;;5108425;27;20040;-71
2021/07/14 03:18:13;;;;;;;7.15;4.20;;;14.40;53.60;;;;;;5109247;27;20043;-72
2021/07/14 03:21:03;;;;;;;9.40;5.03;;;14.30;54.50;;;;;;5110320;27;20093;-72
2021/07/14 03:23:52;;;;;;;12.40;5.57;;;14.30;54.30;;;;;;5108498;27;20035;-72
2021/07/14 03:26:40;;;;;;;7.95;4.68;;;14.20;55.00;;;;;;5112709;27;20039;-72
2021/07/14 03:29:32;;;;;;;9.02;4.68;;;14.20;56.00;;;;;;5109242;27;20051;-71
2021/07/14 03:32:20;;;;;;;7.28;4.35;;;14.20;56.00;;;;;;5109937;27;20185;-71
2021/07/14 03:35:10;;;;;;;5.70;4.40;;;14.20;56.50;;;;;;5108598;27;20055;-72
2021/07/14 03:38:02;;;;;;;6.53;4.45;;;14.20;56.20;;;;;;5107726;27;20414;-72
2021/07/14 03:40:52;;;;;;;4.95;4.03;;;14.30;54.70;;;;;;5107643;27;20066;-71
2021/07/14 03:43:40;;;;;;;7.20;4.40;;;14.30;53.30;;;;;;5109221;27;20136;-72
2021/07/14 03:46:31;;;;;;;6.63;3.97;;;14.30;52.80;;;;;;5115349;27;20043;-71
2021/07/14 03:49:20;;;;;;;6.20;3.95;;;14.30;52.90;;;;;;5105706;27;20457;-73
2021/07/14 03:52:10;;;;;;;10.13;4.20;;;14.40;52.80;;;;;;5112242;27;20607;-72
2021/07/14 03:55:01;;;;;;;6.75;4.07;;;14.40;52.20;;;;;;5109150;27;20031;-73
2021/07/14 03:57:49;;;;;;;7.68;3.90;;;14.30;51.30;;;;;;5105890;27;20749;-72
2021/07/14 04:00:38;;;;;;;8.43;3.97;;;14.40;53.10;;;;;;5110973;27;20134;-72
2021/07/14 04:03:29;;;;;;;6.75;4.60;;;14.40;51.40;;;;;;5112454;27;20509;-71
2021/07/14 04:06:20;;;;;;;6.53;4.18;;;14.40;50.40;;;;;;5108722;27;20039;-73
2021/07/14 04:09:22;;;;;;;6.38;4.00;;;14.40;50.90;;;;;;5109778;27;20048;-71
2021/07/14 04:12:10;;;;;;;5.22;3.67;;;14.50;50.40;;;;;;5108871;27;20524;-72
2021/07/14 04:15:00;;;;;;;5.25;3.50;;;14.40;50.10;;;;;;5107481;27;20051;-72
2021/07/14 04:17:48;;;;;;;10.98;3.83;;;14.50;49.40;;;;;;5108239;27;20079;-72
2021/07/14 04:20:38;;;;;;;7.50;4.13;;;14.60;49.50;;;;;;5108950;27;20051;-72
2021/07/14 04:23:27;;;;;;;5.88;4.00;;;14.60;49.50;;;;;;5111043;27;20051;-71
2021/07/14 04:26:16;;;;;;;7.65;4.13;;;14.50;49.30;;;;;;5110314;27;20512;-72
2021/07/14 04:29:05;;;;;;;6.25;3.83;;;14.60;49.50;;;;;;5104844;28;20107;-71
2021/07/14 04:31:53;;;;;;;8.20;3.90;;;14.60;48.70;;;;;;5108115;27;20126;-72
2021/07/14 04:34:42;;;;;;;10.43;3.50;;;14.60;48.60;;;;;;5110263;27;20117;-72
2021/07/14 04:37:31;;;;;;;9.00;3.92;;;14.60;49.40;;;;;;5109761;27;20036;-71
2021/07/14 04:40:22;;;;;;;7.38;4.20;;;14.60;49.50;;;;;;5113403;27;20103;-71
2021/07/14 04:43:11;;;;;;;7.63;4.03;;;14.70;49.10;;;;;;5111188;27;20039;-73
2021/07/14 04:45:59;;;;;;;6.97;4.03;;;14.70;48.00;;;;;;5108135;27;20053;-71
2021/07/14 04:48:48;;;;;;;5.88;4.03;;;14.70;47.20;;;;;;5111082;27;20096;-72
2021/07/14 04:51:36;;;;;;;8.90;3.97;;;14.80;46.80;;;;;;5104992;28;20055;-71
2021/07/14 04:54:26;;;;;;;7.88;4.20;;;14.80;46.80;;;;;;5107455;28;20047;-72
2021/07/14 04:57:14;;;;;;;6.85;3.50;;;14.80;46.30;;;;;;5109336;28;20032;-72
2021/07/14 05:00:05;;;;;;;5.25;3.42;;;14.80;46.70;;;;;;5110642;27;20115;-72
2021/07/14 05:02:53;;;;;;;8.50;4.07;;;14.80;46.10;;;;;;5111764;27;20043;-71
2021/07/14 05:05:42;;;;;;;7.68;4.05;;;14.70;45.90;;;;;;5117933;27;20053;-72
2021/07/14 05:08:30;;;;;;;4.85;3.15;;;14.80;46.80;;;;;;5112173;27;20036;-72
2021/07/14 05:11:20;;;;;;;7.28;3.92;;;14.80;47.00;;;;;;5113549;27;20056;-73
2021/07/14 05:14:08;;;;;;;6.20;4.00;;;14.80;45.70;;;;;;5113729;27;20142;-71
2021/07/14 05:16:57;;;;;;;7.07;3.92;;;14.70;45.50;;;;;;5113648;27;20120;-72
2021/07/14 05:19:45;;;;;;;7.13;4.10;;;14.80;45.30;;;;;;5115770;27;20051;-72
2021/07/14 05:22:33;;;;;;;7.13;4.07;;;14.90;44.40;;;;;;5109485;27;20043;-73
2021/07/14 05:25:22;;;;;;;6.35;3.95;;;15.20;43.70;;;;;;5113994;27;20430;-71
2021/07/14 05:28:11;;;;;;;6.53;3.72;;;15.30;41.70;;;;;;5111482;27;20039;-72
2021/07/14 05:31:00;;;;;;;5.97;4.22;;;15.30;41.30;;;;;;5114282;27;20067;-71
2021/07/14 05:33:48;;;;;;;6.10;3.78;;;15.30;39.80;;;;;;5116654;27;20483;-72
2021/07/14 05:36:41;;;;;;;7.88;4.90;;;15.30;38.00;;;;;;5110459;27;20152;-71
2021/07/14 05:39:29;;;;;;;10.57;4.22;;;15.40;39.10;;;;;;5108402;27;20052;-72
2021/07/14 05:42:18;;;;;;;7.30;4.13;;;15.40;37.50;;;;;;5117377;27;20046;-72
2021/07/14 05:45:09;;;;;;;7.20;4.28;;;15.30;37.50;;;;;;5115662;27;20054;-71
2021/07/14 05:47:58;;;;;;;7.47;4.15;;;15.40;37.40;;;;;;5110687;27;20537;-71
2021/07/14 05:50:46;;;;;;;6.30;4.25;;;15.40;36.00;;;;;;5111102;27;20063;-72
2021/07/14 05:53:34;;;;;;;7.43;4.28;;;15.50;36.40;;;;;;5108209;28;20056;-71
2021/07/14 05:56:23;;;;;;;6.68;4.18;;;15.50;34.10;;;;;;5113431;27;20116;-71
2021/07/14 05:59:11;;;;;;;6.55;4.43;;;15.50;35.80;;;;;;5111803;27;20092;-71
2021/07/14 06:02:01;;;;;;;5.65;4.05;;;15.50;33.30;;;;;;5112202;27;20048;-72
2021/07/14 06:04:49;;;;;;;7.50;4.32;;;15.50;33.30;;;;;;5111946;27;20047;-72
2021/07/14 06:07:38;;;;;;;8.05;4.57;;;15.70;30.70;;;;;;5109565;27;20110;-73
2021/07/14 06:10:26;;;;;;;6.13;3.92;;;15.50;31.60;;;;;;5110415;27;20558;-71
2021/07/14 06:13:15;;;;;;;12.68;4.47;;;15.50;30.70;;;;;;5106669;27;20097;-72
2021/07/14 06:16:07;;;;;;;10.80;4.70;;;15.50;40.80;;;;;;5111897;27;20075;-72
2021/07/14 06:18:58;;;;;;;6.57;4.40;;;15.40;42.90;;;;;;5111943;27;20036;-71
2021/07/14 06:21:47;;;;;;;12.93;4.63;;;15.40;44.10;;;;;;5108633;27;20047;-72
2021/07/14 06:24:35;;;;;;;8.15;4.20;;;15.40;44.40;;;;;;5113025;27;20055;-73
2021/07/14 06:27:34;;;;;;;11.02;4.55;;;15.30;42.00;;;;;;5108082;27;20039;-73
2021/07/14 06:30:22;;;;;;;9.55;4.68;;;15.30;43.90;;;;;;5110674;27;20426;-74
2021/07/14 06:33:11;;;;;;;7.47;4.38;;;15.50;45.10;;;;;;5114934;27;20714;-73
2021/07/14 06:36:02;;;;;;;9.73;4.57;;;15.40;44.60;;;;;;5112579;27;20040;-73
2021/07/14 06:38:50;;;;;;;6.22;4.60;;;15.40;41.90;;;;;;5108824;27;20112;-73
2021/07/14 06:41:39;;;;;;;6.88;4.28;;;15.50;43.90;;;;;;5112495;27;20051;-73
2021/07/14 06:44:27;;;;;;;8.55;4.30;;;15.60;42.00;;;;;;5108154;27;20406;-73
2021/07/14 06:47:16;;;;;;;12.43;4.00;;;15.80;41.80;;;;;;5111996;27;20050;-73
2021/07/14 06:50:06;;;;;;;6.15;4.40;;;15.90;37.40;;;;;;5110207;27;20051;-73
2021/07/14 06:52:56;;;;;;;6.88;4.45;;;15.90;35.70;;;;;;5110851;27;20158;-73
2021/07/14 06:55:45;;;;;;;6.53;4.50;;;15.90;35.10;;;;;;5111557;27;20051;-73
2021/07/14 06:58:36;;;;;;;7.30;4.70;;;15.90;35.90;;;;;;5111407;27;20056;-71
2021/07/14 07:01:25;;;;;;;8.40;4.88;;;15.80;35.60;;;;;;5111092;27;20411;-72
2021/07/14 07:04:14;;;;;;;7.18;4.53;;;16.00;36.20;;;;;;5109497;27;20422;-72
2021/07/14 07:07:02;;;;;;;9.07;4.68;;;15.90;37.30;;;;;;5110944;27;20454;-74
2021/07/14 07:09:52;;;;;;;14.98;5.63;;;16.00;37.00;;;;;;5118413;27;20175;-73
2021/07/14 07:12:41;;;;;;;8.60;4.55;;;15.90;38.00;;;;;;5109670;27;20054;-73
2021/07/14 07:15:30;;;;;;;13.00;5.28;;;15.90;35.70;;;;;;5107580;27;20047;-73
2021/07/14 07:18:19;;;;;;;8.05;5.07;;;16.00;38.60;;;;;;5111734;27;20040;-73
2021/07/14 07:21:17;;;;;;;8.23;4.45;;;15.90;37.80;;;;;;5108341;27;20039;-72
2021/07/14 07:24:07;;;;;;;7.65;4.57;;;16.00;37.70;;;;;;5114011;27;20147;-72
2021/07/14 07:26:57;;;;;;;7.47;4.65;;;16.00;35.70;;;;;;5107806;27;20067;-72
2021/07/14 07:29:46;;;;;;;8.90;4.75;;;15.90;34.50;;;;;;5106628;27;20052;-73
2021/07/14 07:32:34;;;;;;;10.05;4.65;;;15.90;35.30;;;;;;5111234;27;20051;-72
2021/07/14 07:35:23;;;;;;;11.10;5.53;;;16.10;38.20;;;;;;5112528;27;20048;-74
2021/07/14 07:38:11;;;;;;;10.88;4.57;;;15.90;37.90;;;;;;5113241;27;20532;-74
2021/07/14 07:40:59;;;;;;;14.48;5.35;;;15.80;33.60;;;;;;5108798;27;20070;-73
2021/07/14 07:43:49;;;;;;;6.82;4.43;;;16.10;40.10;;;;;;5109164;27;20140;-73
2021/07/14 07:46:40;;;;;;;8.38;4.40;;;16.10;35.10;;;;;;5111295;27;20079;-73
2021/07/14 07:49:28;;;;;;;7.38;4.30;;;16.00;35.30;;;;;;5112122;27;20036;-72
2021/07/14 07:52:18;;;;;;;9.93;5.15;;;16.00;38.70;;;;;;5112717;27;20463;-73
2021/07/14 07:55:09;;;;;;;10.35;5.25;;;16.00;39.50;;;;;;5108047;27;20061;-72
2021/07/14 07:57:58;;;;;;;10.10;5.13;;;16.10;42.50;;;;;;5108638;27;20039;-73
2021/07/14 08:00:48;;;;;;;6.47;4.22;;;16.10;40.00;;;;;;5110975;27;20043;-73
2021/07/14 08:03:37;;;;;;;6.50;5.10;;;16.10;40.00;;;;;;5110236;27;20192;-72
2021/07/14 08:06:25;;;;;;;11.57;4.93;;;16.00;38.50;;;;;;5107377;27;20424;-73
2021/07/14 08:09:14;;;;;;;9.20;5.22;;;16.00;38.10;;;;;;5107652;27;20051;-73
2021/07/14 08:12:03;;;;;;;10.02;4.97;;;16.00;40.30;;;;;;5105635;27;20066;-72
2021/07/14 08:14:51;;;;;;;7.95;4.65;;;16.00;40.90;;;;;;5111514;27;20048;-73
2021/07/14 08:17:41;;;;;;;5.57;3.95;;;15.80;37.90;;;;;;5106807;27;20066;-73
2021/07/14 08:20:30;;;;;;;8.48;4.45;;;16.00;41.80;;;;;;5107984;27;20519;-73
2021/07/14 08:23:20;;;;;;;9.13;5.15;;;16.00;42.40;;;;;;5108283;27;20039;-72
2021/07/14 08:26:08;;;;;;;11.70;4.72;;;16.10;44.60;;;;;;5106740;27;20053;-72
2021/07/14 08:28:57;;;;;;;8.40;5.47;;;16.00;45.00;;;;;;5110811;27;20047;-73
2021/07/14 08:31:48;;;;;;;7.80;5.20;;;16.10;46.00;;;;;;5108884;27;20070;-72
2021/07/14 08:34:38;;;;;;;7.28;5.15;;;16.00;44.70;;;;;;5108342;27;20119;-73
2021/07/14 08:37:26;;;;;;;13.05;5.50;;;16.10;44.20;;;;;;5105327;27;20480;-73
2021/07/14 08:40:15;;;;;;;6.65;4.63;;;16.10;45.50;;;;;;5108703;27;20073;-73
2021/07/14 08:43:06;;;;;;;10.40;5.18;;;16.10;45.70;;;;;;5112825;27;20405;-72
2021/07/14 08:45:56;;;;;;;7.50;5.10;;;16.10;45.90;;;;;;5109336;27;20423;-71
2021/07/14 08:48:46;;;;;;;11.68;8.18;;;16.20;48.00;;;;;;5110612;27;20051;-72
2021/07/14 08:51:37;;;;;;;7.82;5.68;;;16.20;48.60;;;;;;5104806;28;20063;-71
2021/07/14 08:54:26;;;;;;;7.95;5.25;;;16.10;48.30;;;;;;5109002;28;20126;-71
2021/07/14 08:57:17;;;;;;;6.93;5.57;;;16.20;49.80;;;;;;5109192;28;20039;-72
2021/07/14 09:00:09;;;;;;;8.38;5.85;;;16.10;50.90;;;;;;5112028;28;20117;-72
2021/07/14 09:02:58;;;;;;;9.73;5.85;;;16.10;52.40;;;;;;5108746;28;20055;-73
2021/07/14 09:05:47;;;;;;;9.57;6.03;;;16.00;50.60;;;;;;5107571;28;20521;-73
2021/07/14 09:08:37;;;;;;;11.57;5.95;;;15.90;52.10;;;;;;5108715;28;20112;-72
2021/07/14 09:11:26;;;;;;;12.02;6.03;;;15.90;54.50;;;;;;5111230;28;20051;-72
2021/07/14 09:14:26;;;;;;;11.38;6.32;;;16.00;55.10;;;;;;5111189;28;20048;-72
2021/07/14 09:17:24;;;;;;;7.78;6.10;;;16.00;56.10;;;;;;5108296;28;20490;-73
2021/07/14 09:20:16;;;;;;;10.40;6.18;;;16.20;55.00;;;;;;5111787;28;20047;-72
2021/07/14 09:23:06;;;;;;;13.15;6.47;;;16.10;54.50;;;;;;5115481;28;20521;-73
2021/07/14 09:25:59;;;;;;;9.68;6.43;;;16.40;52.50;;;;;;5108784;28;20063;-72
2021/07/14 09:28:48;;;;;;;10.02;6.03;;;16.50;51.20;;;;;;5110637;28;20039;-71
2021/07/14 09:31:37;;;;;;;12.48;6.07;;;16.60;52.60;;;;;;5106684;28;20044;-72
2021/07/14 09:34:28;;;;;;;8.55;5.28;;;16.70;51.30;;;;;;5111366;28;20624;-73
2021/07/14 09:37:18;;;;;;;9.07;5.35;;;16.60;47.20;;;;;;5106314;28;20079;-73
2021/07/14 09:40:16;;;;;;;9.35;5.60;;;16.80;47.50;;;;;;5109150;28;20051;-73
2021/07/14 09:43:10;;;;;;;10.02;5.65;;;16.90;48.50;;;;;;5105549;28;20067;-72
2021/07/14 09:46:00;;;;;;;11.80;5.97;;;17.10;46.70;;;;;;5106285;28;20044;-71
2021/07/14 09:48:53;;;;;;;13.65;5.68;;;17.10;41.60;;;;;;5111559;27;20050;-73
2021/07/14 09:51:42;;;;;;;32.70;23.77;;;17.00;43.70;;;;;;5107929;27;20048;-72
2021/07/14 09:54:32;;;;;;;13.35;5.38;;;17.50;45.50;;;;;;5116908;27;20097;-72
2021/07/14 09:57:21;;;;;;;14.60;6.05;;;17.50;43.60;;;;;;5109132;27;20568;-72
2021/07/14 10:00:22;;;;;;;11.82;5.47;;;17.80;42.00;;;;;;5114889;27;20089;-71
2021/07/14 10:03:18;;;;;;;8.85;4.60;;;17.70;35.30;;;;;;5110050;27;20188;-72
2021/07/14 10:06:09;;;;;;;8.73;4.82;;;17.50;33.60;;;;;;5113034;27;20051;-72
2021/07/14 10:09:04;;;;;;;7.95;4.10;;;17.60;36.40;;;;;;5114062;27;20047;-72
2021/07/14 10:11:52;;;;;;;8.10;4.32;;;17.80;32.20;;;;;;5112399;27;20463;-71
2021/07/14 10:14:42;;;;;;;8.57;4.43;;;18.10;30.60;;;;;;5112469;27;20048;-71
2021/07/14 10:17:39;;;;;;;6.57;3.92;;;18.10;24.50;;;;;;5107722;27;20055;-73
2021/07/14 10:20:30;;;;;;;6.65;3.80;;;18.40;27.80;;;;;;5113417;27;20043;-72
2021/07/14 10:23:19;;;;;;;5.63;4.13;;;18.60;24.50;;;;;;5113227;27;20506;-72
2021/07/14 10:26:07;;;;;;;8.10;4.00;;;18.50;26.40;;;;;;5106927;28;20054;-71
2021/07/14 10:28:57;;;;;;;5.55;3.70;;;18.90;25.60;;;;;;5114718;27;20512;-72
2021/07/14 10:31:50;;;;;;;4.70;3.42;;;19.00;22.40;;;;;;5106460;27;20062;-72
2021/07/14 10:34:41;;;;;;;6.45;3.63;;;19.00;18.50;;;;;;5095456;27;20051;-72
2021/07/14 10:37:30;;;;;;;5.38;3.30;;;19.00;20.10;;;;;;5112921;27;20065;-73
2021/07/14 10:40:20;;;;;;;8.35;3.88;;;19.10;16.30;;;;;;5111079;27;20176;-72
2021/07/14 10:43:09;;;;;;;4.38;3.00;;;19.40;12.90;;;;;;5115087;27;20048;-73
2021/07/14 10:45:58;;;;;;;5.28;3.80;;;19.60;12.50;;;;;;5111686;27;20039;-72
2021/07/14 10:48:47;;;;;;;3.83;3.28;;;19.80;13.10;;;;;;5114706;27;20104;-73
2021/07/14 10:51:39;;;;;;;5.57;3.20;;;19.80;12.70;;;;;;5109470;27;20085;-73
2021/07/14 10:54:29;;;;;;;4.82;2.90;;;19.70;14.20;;;;;;5114221;27;20528;-73
2021/07/14 10:57:17;;;;;;;7.70;3.30;;;19.80;10.80;;;;;;5112644;27;20047;-72
2021/07/14 11:00:08;;;;;;;18.17;11.93;;;19.90;9.80;;;;;;5110419;27;20395;-73
2021/07/14 11:02:57;;;;;;;6.38;2.83;;;20.20;9.40;;;;;;5107911;27;20043;-73
2021/07/14 11:05:45;;;;;;;4.82;2.90;;;20.00;6.90;;;;;;5108347;27;20166;-74
2021/07/14 11:08:40;;;;;;;5.38;3.95;;;20.10;7.20;;;;;;5106518;27;20135;-73
2021/07/14 11:11:37;;;;;;;2.50;2.20;;;20.30;3.80;;;;;;5093281;27;20054;-73
2021/07/14 11:14:34;;;;;;;4.72;2.45;;;20.60;3.70;;;;;;5111933;27;20063;-73
2021/07/14 11:17:30;;;;;;;4.07;1.92;;;20.10;1.30;;;;;;5106573;27;20043;-72
2021/07/14 11:20:19;;;;;;;3.13;2.17;;;20.10;1.00;;;;;;5115187;27;20044;-72
2021/07/14 11:23:20;;;;;;;5.75;2.55;;;19.30;1.00;;;;;;5109488;27;20118;-73
2021/07/14 11:26:17;;;;;;;2.13;1.92;;;20.30;2.60;;;;;;5113722;27;20454;-72
2021/07/14 11:29:13;;;;;;;2.13;1.92;;;20.60;1.00;;;;;;5111822;27;20048;-73
2021/07/14 11:32:02;;;;;;;3.28;2.20;;;21.20;1.00;;;;;;5109616;27;20161;-74
2021/07/14 11:34:58;;;;;;;2.60;1.80;;;21.50;1.00;;;;;;5108621;27;20039;-74
2021/07/14 11:37:56;;;;;;;3.00;1.30;;;21.30;1.00;;;;;;5110566;27;20168;-72
2021/07/14 11:40:47;;;;;;;3.83;1.85;;;21.70;1.00;;;;;;5106688;27;20048;-73
2021/07/14 11:43:43;;;;;;;2.05;1.40;;;21.00;1.00;;;;;;5109855;27;20101;-73
2021/07/14 11:46:37;;;;;;;2.83;1.58;;;20.30;1.00;;;;;;5106373;27;20182;-73
2021/07/14 11:49:25;;;;;;;4.05;2.75;;;21.10;1.00;;;;;;5108625;27;20051;-74
2021/07/14 11:52:41;;;;;;;2.30;1.50;;;21.60;1.00;;;;;;5110869;27;20103;-72
2021/07/14 11:55:39;;;;;;;4.00;1.63;;;21.30;1.00;;;;;;5110559;27;20043;-74
2021/07/14 11:58:48;;;;;;;2.63;1.85;;;20.60;1.00;;;;;;5111278;27;20043;-74
2021/07/14 12:01:55;;;;;;;3.55;2.10;;;20.90;1.00;;;;;;5108912;27;20047;-71
2021/07/14 12:05:06;;;;;;;3.28;1.50;;;21.20;1.00;;;;;;5107462;27;20128;-71
2021/07/14 12:08:10;;;;;;;12.63;1.88;;;20.60;1.00;;;;;;5105236;28;20864;-71
2021/07/14 12:10:58;;;;;;;1.83;1.50;;;20.90;1.00;;;;;;5106231;27;20043;-72
2021/07/14 12:14:10;;;;;;;2.25;1.67;;;21.60;1.00;;;;;;5111355;27;20066;-72
2021/07/14 12:17:00;;;;;;;1.70;1.60;;;21.60;1.00;;;;;;5111398;27;20039;-72
2021/07/14 12:19:53;;;;;;;2.90;1.65;;;21.40;1.00;;;;;;5108936;27;20046;-72
2021/07/14 12:22:42;;;;;;;2.97;1.80;;;21.20;1.00;;;;;;5108199;27;20055;-72
2021/07/14 12:25:30;;;;;;;3.60;1.73;;;21.30;1.00;;;;;;5106067;27;20071;-71
2021/07/14 12:28:19;;;;;;;1.83;1.20;;;21.30;1.00;;;;;;5108544;27;20512;-72
2021/07/14 12:31:13;;;;;;;2.35;1.30;;;20.80;1.00;;;;;;5105900;27;20043;-72
2021/07/14 12:34:01;;;;;;;2.30;1.40;;;20.90;1.00;;;;;;5111746;27;20051;-72
2021/07/14 12:36:50;;;;;;;2.75;1.75;;;21.10;1.00;;;;;;5108825;27;20047;-71
2021/07/14 12:39:39;;;;;;;2.50;2.15;;;21.50;1.00;;;;;;5112278;27;20204;-72
2021/07/14 12:42:27;;;;;;;2.17;1.92;;;21.10;1.00;;;;;;5108500;27;20128;-72
2021/07/14 12:45:23;;;;;;;2.95;1.80;;;21.20;1.00;;;;;;5110096;27;20047;-72
2021/07/14 12:48:17;;;;;;;1.65;1.55;;;21.00;1.00;;;;;;5106415;27;20119;-72
2021/07/14 12:51:06;;;;;;;3.97;1.90;;;20.60;1.00;;;;;;5109172;28;20244;-72
2021/07/14 12:53:56;;;;;;;5.05;2.22;;;21.10;1.00;;;;;;5110463;28;20059;-72
2021/07/14 12:56:47;;;;;;;2.58;2.05;;;21.20;1.00;;;;;;5106828;28;20526;-72
2021/07/14 12:59:49;;;;;;;3.92;2.17;;;21.00;1.00;;;;;;5106734;28;20051;-71
2021/07/14 13:02:41;;;;;;;4.72;1.92;;;21.10;1.00;;;;;;5105715;28;20039;-71
2021/07/14 13:05:32;;;;;;;4.70;1.95;;;21.10;1.00;;;;;;5112779;28;20063;-73
2021/07/14 13:08:24;;;;;;;2.25;1.70;;;21.20;1.00;;;;;;5109548;28;20127;-72
2021/07/14 13:11:13;;;;;;;2.58;1.70;;;21.30;1.00;;;;;;5104995;28;20066;-72
2021/07/14 13:14:03;;;;;;;3.65;1.92;;;21.30;1.00;;;;;;5112669;28;20414;-72
2021/07/14 13:16:51;;;;;;;2.70;1.70;;;21.50;1.00;;;;;;5107794;28;20054;-72
2021/07/14 13:19:40;;;;;;;2.00;1.60;;;21.30;1.00;;;;;;5107319;28;20047;-72
2021/07/14 13:22:29;;;;;;;1.70;1.60;;;21.40;1.00;;;;;;5109382;27;20054;-72
2021/07/14 13:25:21;;;;;;;4.50;1.58;;;21.60;1.00;;;;;;5112478;27;20075;-71
2021/07/14 13:28:18;;;;;;;1.45;1.30;;;21.60;1.00;;;;;;5114175;27;20093;-72
2021/07/14 13:31:08;;;;;;;2.38;1.60;;;20.90;1.00;;;;;;5114670;27;20040;-70
2021/07/14 13:33:59;;;;;;;1.80;1.70;;;21.00;1.00;;;;;;5111178;27;20495;-72
2021/07/14 13:36:50;;;;;;;2.28;1.30;;;21.20;1.00;;;;;;5111937;27;20112;-72
2021/07/14 13:39:41;;;;;;;2.72;1.40;;;21.60;1.00;;;;;;5115099;27;20141;-73
2021/07/14 13:42:35;;;;;;;4.13;1.92;;;21.40;1.00;;;;;;5108386;27;20080;-72
2021/07/14 13:45:31;;;;;;;2.60;1.67;;;21.50;1.00;;;;;;5113263;27;20044;-72
2021/07/14 13:48:24;;;;;;;1.67;1.40;;;21.30;1.00;;;;;;5113667;27;20294;-71
2021/07/14 13:51:13;;;;;;;1.65;1.50;;;21.40;1.00;;;;;;5108497;27;20160;-71
2021/07/14 13:54:19;;;;;;;3.00;1.90;;;20.90;1.00;;;;;;5116809;27;20134;-71
2021/07/14 13:57:21;;;;;;;1.98;1.77;;;21.20;1.00;;;;;;5109651;27;20035;-70
2021/07/14 14:00:15;;;;;;;2.60;2.03;;;21.40;1.00;;;;;;5116726;27;20177;-72
2021/07/14 14:03:04;;;;;;;2.63;2.07;;;21.70;1.00;;;;;;5114161;27;20032;-72
2021/07/14 14:06:08;;;;;;;2.13;1.63;;;21.20;1.00;;;;;;5111531;27;20417;-71
2021/07/14 14:08:57;;;;;;;3.80;1.85;;;20.90;1.00;;;;;;5110805;27;20093;-72
2021/07/14 14:11:45;;;;;;;1.73;1.60;;;20.90;1.00;;;;;;5107330;27;20055;-71
2021/07/14 14:14:35;;;;;;;1.88;1.70;;;21.40;1.00;;;;;;5112095;27;20063;-71
2021/07/14 14:17:24;;;;;;;4.70;2.22;;;21.00;1.00;;;;;;5111376;27;20067;-72
2021/07/14 14:20:15;;;;;;;4.15;1.70;;;21.10;1.00;;;;;;5113457;27;20137;-72
2021/07/14 14:23:05;;;;;;;2.83;1.90;;;21.30;1.00;;;;;;5112568;27;20100;-73
2021/07/14 14:25:55;;;;;;;2.97;1.50;;;21.90;1.00;;;;;;5116646;27;20462;-72
2021/07/14 14:28:44;;;;;;;3.65;1.95;;;22.30;1.00;;;;;;5109605;27;20051;-72
2021/07/14 14:31:34;;;;;;;4.05;1.50;;;22.70;1.00;;;;;;5109265;27;20690;-72
2021/07/14 14:34:23;;;;;;;1.70;1.40;;;22.10;1.00;;;;;;5108415;27;20407;-72
2021/07/14 14:37:11;;;;;;;2.08;1.48;;;21.90;1.00;;;;;;5118065;27;20189;-73
2021/07/14 14:40:00;;;;;;;1.23;1.13;;;21.80;1.00;;;;;;5113978;27;20137;-71
2021/07/14 14:42:49;;;;;;;5.45;1.60;;;21.60;1.00;;;;;;5112032;27;20040;-71
2021/07/14 14:45:37;;;;;;;3.10;1.75;;;21.40;1.00;;;;;;5109236;27;20069;-73
2021/07/14 14:48:28;;;;;;;2.72;1.65;;;21.40;1.00;;;;;;5106928;27;20050;-73
2021/07/14 14:51:16;;;;;;;8.02;2.08;;;21.60;1.00;;;;;;5113697;27;20036;-73
2021/07/14 14:54:05;;;;;;;1.75;1.55;;;21.70;1.00;;;;;;5114674;27;20150;-72
2021/07/14 14:56:53;;;;;;;3.20;1.40;;;22.00;1.00;;;;;;5110342;27;20628;-72